sensor_id;sensor_type;location;lat;lon;timestamp;pressure;altitude;pressure_sealevel;temperature;humidity
7168;BME280;3625;51.762;14.320;2023-12-14T00:01:53;99570.00;;;6.19;100.00
7168;BME280;3625;51.762;14.320;2023-12-14T00:04:23;99574.59;;;6.06;100.00
7168;BME280;3625;51.762;14.320;2023-12-14T00:06:52;99575.59;;;6.01;100.00
7168;BME280;3625;51.762;14.320;2023-12-14T00:09:20;99541.78;;;5.81;100.00
7168;BME280;3625;51.762;14.320;2023-12-14T00:11:49;99576.31;;;6.09;100.00
7168;BME280;3625;51.762;14.320;2023-12-14T00:14:18;99576.44;;;6.03;100.00
7168;BME280;3625;51.762;14.320;2023-12-14T00:16:46;99590.34;;;6.06;100.00
7168;BME280;3625;51.762;14.320;2023-12-14T00:19:16;99595.56;;;6.08;100.00
7168;BME280;3625;51.762;14.320;2023-12-14T00:21:46;99591.28;;;6.04;100.00
7168;BME280;3625;51.762;14.320;2023-12-14T00:24:15;99555.00;;;5.77;100.00
7168;BME280;3625;51.762;14.320;2023-12-14T00:26:43;99599.09;;;6.07;100.00
7168;BME280;3625;51.762;14.320;2023-12-14T00:29:12;99593.84;;;6.07;100.00
7168;BME280;3625;51.762;14.320;2023-12-14T00:31:41;99609.50;;;6.13;100.00
7168;BME280;3625;51.762;14.320;2023-12-14T00:34:09;99604.41;;;6.04;100.00
7168;BME280;3625;51.762;14.320;2023-12-14T00:36:38;99610.41;;;6.11;100.00
7168;BME280;3625;51.762;14.320;2023-12-14T00:39:08;99615.53;;;6.18;100.00
7168;BME280;3625;51.762;14.320;2023-12-14T00:41:38;99621.56;;;6.23;100.00
7168;BME280;3625;51.762;14.320;2023-12-14T00:44:06;99609.41;;;6.18;100.00
7168;BME280;3625;51.762;14.320;2023-12-14T00:46:35;99617.25;;;6.21;100.00
7168;BME280;3625;51.762;14.320;2023-12-14T00:49:04;99618.00;;;6.26;100.00
7168;BME280;3625;51.762;14.320;2023-12-14T00:51:32;99624.91;;;6.31;100.00
7168;BME280;3625;51.762;14.320;2023-12-14T00:54:01;99631.88;;;6.34;100.00
7168;BME280;3625;51.762;14.320;2023-12-14T00:56:31;99606.91;;;6.12;100.00
7168;BME280;3625;51.762;14.320;2023-12-14T00:59:00;99638.97;;;6.29;100.00
7168;BME280;3625;51.762;14.320;2023-12-14T01:01:28;99649.50;;;6.27;100.00
7168;BME280;3625;51.762;14.320;2023-12-14T01:03:58;99644.41;;;6.20;100.00
7168;BME280;3625;51.762;14.320;2023-12-14T01:06:27;99656.56;;;6.24;100.00
7168;BME280;3625;51.762;14.320;2023-12-14T01:08:55;99647.81;;;6.23;100.00
7168;BME280;3625;51.762;14.320;2023-12-14T01:11:24;99664.44;;;6.24;100.00
7168;BME280;3625;51.762;14.320;2023-12-14T01:13:54;99667.13;;;6.21;100.00
7168;BME280;3625;51.762;14.320;2023-12-14T01:16:26;99667.13;;;6.22;100.00
7168;BME280;3625;51.762;14.320;2023-12-14T01:18:55;99667.88;;;6.29;100.00
7168;BME280;3625;51.762;14.320;2023-12-14T01:21:24;99669.75;;;6.21;100.00
7168;BME280;3625;51.762;14.320;2023-12-14T01:23:53;99671.59;;;6.16;100.00
7168;BME280;3625;51.762;14.320;2023-12-14T01:26:21;99671.44;;;6.25;100.00
7168;BME280;3625;51.762;14.320;2023-12-14T01:28:50;99673.22;;;6.23;100.00
7168;BME280;3625;51.762;14.320;2023-12-14T01:31:20;99678.41;;;6.26;100.00
7168;BME280;3625;51.762;14.320;2023-12-14T01:33:50;99583.19;;;5.64;100.00
7168;BME280;3625;51.762;14.320;2023-12-14T01:36:24;99679.38;;;6.22;100.00
7168;BME280;3625;51.762;14.320;2023-12-14T01:38:53;99682.00;;;6.22;100.00
7168;BME280;3625;51.762;14.320;2023-12-14T01:41:22;99685.41;;;6.27;100.00
7168;BME280;3625;51.762;14.320;2023-12-14T01:43:50;99680.03;;;6.33;100.00
7168;BME280;3625;51.762;14.320;2023-12-14T01:46:20;99686.88;;;6.41;100.00
7168;BME280;3625;51.762;14.320;2023-12-14T01:48:49;99680.03;;;6.33;100.00
7168;BME280;3625;51.762;14.320;2023-12-14T01:51:19;99685.53;;;6.21;100.00
7168;BME280;3625;51.762;14.320;2023-12-14T01:53:48;99686.31;;;6.24;100.00
7168;BME280;3625;51.762;14.320;2023-12-14T01:56:16;99642.09;;;6.01;100.00
7168;BME280;3625;51.762;14.320;2023-12-14T01:58:45;99684.53;;;6.28;100.00
7168;BME280;3625;51.762;14.320;2023-12-14T02:01:22;99692.34;;;6.31;100.00
7168;BME280;3625;51.762;14.320;2023-12-14T02:03:55;99685.41;;;6.27;100.00
7168;BME280;3625;51.762;14.320;2023-12-14T02:06:24;99694.16;;;6.27;100.00
7168;BME280;3625;51.762;14.320;2023-12-14T02:08:53;99692.44;;;6.25;100.00
7168;BME280;3625;51.762;14.320;2023-12-14T02:11:21;99696.91;;;6.21;100.00
7168;BME280;3625;51.762;14.320;2023-12-14T02:13:50;99700.38;;;6.22;100.00
7168;BME280;3625;51.762;14.320;2023-12-14T02:16:20;99705.66;;;6.22;100.00
7168;BME280;3625;51.762;14.320;2023-12-14T02:18:49;99711.03;;;6.13;100.00
7168;BME280;3625;51.762;14.320;2023-12-14T02:21:18;99706.75;;;6.07;100.00
7168;BME280;3625;51.762;14.320;2023-12-14T02:23:48;99712.81;;;6.11;100.00
7168;BME280;3625;51.762;14.320;2023-12-14T02:26:17;99724.16;;;6.13;100.00
7168;BME280;3625;51.762;14.320;2023-12-14T02:28:45;99717.97;;;6.15;100.00
7168;BME280;3625;51.762;14.320;2023-12-14T02:31:14;99717.03;;;6.22;100.00
7168;BME280;3625;51.762;14.320;2023-12-14T02:33:43;99718.69;;;6.25;100.00
7168;BME280;3625;51.762;14.320;2023-12-14T02:36:12;99674.47;;;6.00;100.00
7168;BME280;3625;51.762;14.320;2023-12-14T02:38:41;99730.78;;;6.36;100.00
7168;BME280;3625;51.762;14.320;2023-12-14T02:41:12;99728.09;;;6.39;100.00
7168;BME280;3625;51.762;14.320;2023-12-14T02:43:40;99734.28;;;6.37;100.00
7168;BME280;3625;51.762;14.320;2023-12-14T02:46:09;99742.94;;;6.40;100.00
7168;BME280;3625;51.762;14.320;2023-12-14T02:48:41;99740.28;;;6.43;100.00
7168;BME280;3625;51.762;14.320;2023-12-14T02:51:13;99743.88;;;6.39;100.00
7168;BME280;3625;51.762;14.320;2023-12-14T02:53:43;99739.41;;;6.43;100.00
7168;BME280;3625;51.762;14.320;2023-12-14T02:56:13;99743.75;;;6.46;100.00
7168;BME280;3625;51.762;14.320;2023-12-14T02:58:41;99747.25;;;6.46;100.00
7168;BME280;3625;51.762;14.320;2023-12-14T03:01:10;99754.25;;;6.47;100.00
7168;BME280;3625;51.762;14.320;2023-12-14T03:03:39;99756.06;;;6.42;100.00
7168;BME280;3625;51.762;14.320;2023-12-14T03:06:07;99750.00;;;6.38;100.00
7168;BME280;3625;51.762;14.320;2023-12-14T03:08:36;99745.66;;;6.37;100.00
7168;BME280;3625;51.762;14.320;2023-12-14T03:11:05;99719.75;;;6.15;100.00
7168;BME280;3625;51.762;14.320;2023-12-14T03:13:35;99757.03;;;6.36;100.00
7168;BME280;3625;51.762;14.320;2023-12-14T03:16:05;99761.41;;;6.37;100.00
7168;BME280;3625;51.762;14.320;2023-12-14T03:18:34;99755.28;;;6.38;100.00
7168;BME280;3625;51.762;14.320;2023-12-14T03:21:03;99745.78;;;6.28;100.00
7168;BME280;3625;51.762;14.320;2023-12-14T03:23:32;99765.81;;;6.35;100.00
7168;BME280;3625;51.762;14.320;2023-12-14T03:26:01;99771.16;;;6.31;100.00
7168;BME280;3625;51.762;14.320;2023-12-14T03:28:30;99770.38;;;6.23;100.00
7168;BME280;3625;51.762;14.320;2023-12-14T03:31:00;99775.69;;;6.20;100.00
7168;BME280;3625;51.762;14.320;2023-12-14T03:33:29;99780.84;;;6.27;100.00
7168;BME280;3625;51.762;14.320;2023-12-14T03:35:58;99780.72;;;6.33;100.00
7168;BME280;3625;51.762;14.320;2023-12-14T03:38:27;99759.97;;;6.17;100.00
7168;BME280;3625;51.762;14.320;2023-12-14T03:40:55;99785.09;;;6.34;100.00
7168;BME280;3625;51.762;14.320;2023-12-14T03:43:24;99784.19;;;6.37;100.00
7168;BME280;3625;51.762;14.320;2023-12-14T03:45:53;99789.44;;;6.35;100.00
7168;BME280;3625;51.762;14.320;2023-12-14T03:48:23;99788.53;;;6.38;100.00
7168;BME280;3625;51.762;14.320;2023-12-14T03:50:52;99803.47;;;6.34;100.00
7168;BME280;3625;51.762;14.320;2023-12-14T03:53:20;99806.19;;;6.30;100.00
7168;BME280;3625;51.762;14.320;2023-12-14T03:55:49;99807.88;;;6.32;100.00
7168;BME280;3625;51.762;14.320;2023-12-14T03:58:18;99811.44;;;6.30;100.00
7168;BME280;3625;51.762;14.320;2023-12-14T04:00:47;99794.84;;;6.28;100.00
7168;BME280;3625;51.762;14.320;2023-12-14T04:03:15;99818.44;;;6.29;100.00
7168;BME280;3625;51.762;14.320;2023-12-14T04:05:45;99819.25;;;6.33;100.00
7168;BME280;3625;51.762;14.320;2023-12-14T04:08:14;99823.75;;;6.26;100.00
7168;BME280;3625;51.762;14.320;2023-12-14T04:10:43;99829.88;;;6.27;100.00
7168;BME280;3625;51.762;14.320;2023-12-14T04:13:12;99838.63;;;6.26;100.00
7168;BME280;3625;51.762;14.320;2023-12-14T04:15:40;99811.63;;;6.18;100.00
7168;BME280;3625;51.762;14.320;2023-12-14T04:18:10;99828.88;;;6.34;100.00
7168;BME280;3625;51.762;14.320;2023-12-14T04:20:39;99832.34;;;6.37;100.00
7168;BME280;3625;51.762;14.320;2023-12-14T04:23:09;99810.59;;;6.28;100.00
7168;BME280;3625;51.762;14.320;2023-12-14T04:25:37;99838.44;;;6.39;100.00
7168;BME280;3625;51.762;14.320;2023-12-14T04:28:06;99845.34;;;6.45;100.00
7168;BME280;3625;51.762;14.320;2023-12-14T04:30:35;99848.84;;;6.46;100.00
7168;BME280;3625;51.762;14.320;2023-12-14T04:33:03;99848.84;;;6.47;100.00
7168;BME280;3625;51.762;14.320;2023-12-14T04:35:32;99861.09;;;6.47;100.00
7168;BME280;3625;51.762;14.320;2023-12-14T04:38:04;99789.16;;;5.97;100.00
7168;BME280;3625;51.762;14.320;2023-12-14T04:40:34;99863.72;;;6.48;100.00
7168;BME280;3625;51.762;14.320;2023-12-14T04:43:03;99837.00;;;6.17;100.00
7168;BME280;3625;51.762;14.320;2023-12-14T04:45:32;99877.75;;;6.44;100.00
7168;BME280;3625;51.762;14.320;2023-12-14T04:48:00;99881.28;;;6.43;100.00
7168;BME280;3625;51.762;14.320;2023-12-14T04:50:29;99872.78;;;6.26;100.00
7168;BME280;3625;51.762;14.320;2023-12-14T04:52:58;99884.09;;;6.31;100.00
7168;BME280;3625;51.762;14.320;2023-12-14T04:55:27;99892.00;;;6.28;100.00
7168;BME280;3625;51.762;14.320;2023-12-14T04:57:57;99875.41;;;6.26;100.00
7168;BME280;3625;51.762;14.320;2023-12-14T05:00:25;99895.50;;;6.30;100.00
7168;BME280;3625;51.762;14.320;2023-12-14T05:02:54;99896.41;;;6.27;100.00
7168;BME280;3625;51.762;14.320;2023-12-14T05:05:23;99899.91;;;6.26;100.00
7168;BME280;3625;51.762;14.320;2023-12-14T05:07:51;99900.91;;;6.16;100.00
7168;BME280;3625;51.762;14.320;2023-12-14T05:10:20;99904.56;;;6.06;100.00
7168;BME280;3625;51.762;14.320;2023-12-14T05:12:48;99909.84;;;6.04;100.00
7168;BME280;3625;51.762;14.320;2023-12-14T05:15:18;99916.84;;;6.04;100.00
7168;BME280;3625;51.762;14.320;2023-12-14T05:17:48;99922.03;;;6.07;100.00
7168;BME280;3625;51.762;14.320;2023-12-14T05:20:17;99927.28;;;6.09;100.00
7168;BME280;3625;51.762;14.320;2023-12-14T05:22:47;99929.09;;;6.05;100.00
7168;BME280;3625;51.762;14.320;2023-12-14T05:25:16;99932.50;;;6.12;100.00
7168;BME280;3625;51.762;14.320;2023-12-14T05:27:45;99935.16;;;6.07;100.00
7168;BME280;3625;51.762;14.320;2023-12-14T05:30:14;99934.38;;;6.00;100.00
7168;BME280;3625;51.762;14.320;2023-12-14T05:32:44;99944.00;;;6.03;100.00
7168;BME280;3625;51.762;14.320;2023-12-14T05:35:13;99952.72;;;6.05;100.00
7168;BME280;3625;51.762;14.320;2023-12-14T05:37:42;99959.72;;;6.04;100.00
7168;BME280;3625;51.762;14.320;2023-12-14T05:40:11;99967.53;;;6.11;100.00
7168;BME280;3625;51.762;14.320;2023-12-14T05:42:40;99939.75;;;5.90;100.00
7168;BME280;3625;51.762;14.320;2023-12-14T05:45:10;99973.53;;;6.20;100.00
7168;BME280;3625;51.762;14.320;2023-12-14T05:47:39;99977.16;;;6.12;100.00
7168;BME280;3625;51.762;14.320;2023-12-14T05:50:10;99976.38;;;6.02;100.00
7168;BME280;3625;51.762;14.320;2023-12-14T05:52:40;99989.50;;;6.02;100.00
7168;BME280;3625;51.762;14.320;2023-12-14T05:55:09;99965.19;;;5.83;100.00
7168;BME280;3625;51.762;14.320;2023-12-14T05:57:38;99981.75;;;5.90;100.00
7168;BME280;3625;51.762;14.320;2023-12-14T06:00:08;100003.66;;;5.87;100.00
7168;BME280;3625;51.762;14.320;2023-12-14T06:02:37;100006.25;;;5.90;100.00
7168;BME280;3625;51.762;14.320;2023-12-14T06:05:10;100008.94;;;5.83;100.00
7168;BME280;3625;51.762;14.320;2023-12-14T06:07:39;100019.44;;;5.83;100.00
7168;BME280;3625;51.762;14.320;2023-12-14T06:10:09;100016.06;;;5.70;100.00
7168;BME280;3625;51.762;14.320;2023-12-14T06:12:39;100029.22;;;5.67;100.00
7168;BME280;3625;51.762;14.320;2023-12-14T06:15:09;99999.66;;;5.45;100.00
7168;BME280;3625;51.762;14.320;2023-12-14T06:17:38;100027.47;;;5.67;100.00
7168;BME280;3625;51.762;14.320;2023-12-14T06:20:12;100034.47;;;5.67;100.00
7168;BME280;3625;51.762;14.320;2023-12-14T06:22:41;100032.78;;;5.61;100.00
7168;BME280;3625;51.762;14.320;2023-12-14T06:25:10;100045.84;;;5.66;100.00
7168;BME280;3625;51.762;14.320;2023-12-14T06:27:39;100043.31;;;5.54;100.00
7168;BME280;3625;51.762;14.320;2023-12-14T06:30:09;100054.66;;;5.60;100.00
7168;BME280;3625;51.762;14.320;2023-12-14T06:32:40;100047.59;;;5.67;100.00
7168;BME280;3625;51.762;14.320;2023-12-14T06:35:11;100050.22;;;5.64;100.00
7168;BME280;3625;51.762;14.320;2023-12-14T06:37:41;100058.16;;;5.55;100.00
7168;BME280;3625;51.762;14.320;2023-12-14T06:40:11;100064.41;;;5.42;100.00
7168;BME280;3625;51.762;14.320;2023-12-14T06:42:40;100038.31;;;5.26;100.00
7168;BME280;3625;51.762;14.320;2023-12-14T06:45:10;100071.31;;;5.53;100.00
7168;BME280;3625;51.762;14.320;2023-12-14T06:47:39;100080.94;;;5.51;100.00
7168;BME280;3625;51.762;14.320;2023-12-14T06:50:11;100082.72;;;5.49;100.00
7168;BME280;3625;51.762;14.320;2023-12-14T06:52:41;100087.94;;;5.51;100.00
7168;BME280;3625;51.762;14.320;2023-12-14T06:55:10;100080.13;;;5.45;100.00
7168;BME280;3625;51.762;14.320;2023-12-14T06:57:39;100090.66;;;5.42;100.00
7168;BME280;3625;51.762;14.320;2023-12-14T07:00:09;100025.41;;;4.98;100.00
7168;BME280;3625;51.762;14.320;2023-12-14T07:02:38;100108.19;;;5.30;100.00
7168;BME280;3625;51.762;14.320;2023-12-14T07:05:08;100115.25;;;5.25;100.00
7168;BME280;3625;51.762;14.320;2023-12-14T07:07:38;100076.94;;;5.00;100.00
7168;BME280;3625;51.762;14.320;2023-12-14T07:10:08;100125.75;;;5.19;100.00
7168;BME280;3625;51.762;14.320;2023-12-14T07:12:37;100101.38;;;5.02;100.00
7168;BME280;3625;51.762;14.320;2023-12-14T07:15:09;100118.78;;;5.12;100.00
7168;BME280;3625;51.762;14.320;2023-12-14T07:17:38;100103.97;;;5.05;100.00
7168;BME280;3625;51.762;14.320;2023-12-14T07:20:11;100129.31;;;5.08;100.00
7168;BME280;3625;51.762;14.320;2023-12-14T07:22:41;100140.63;;;5.17;100.00
7168;BME280;3625;51.762;14.320;2023-12-14T07:25:10;100150.22;;;5.21;100.00
7168;BME280;3625;51.762;14.320;2023-12-14T07:27:39;100150.25;;;5.18;100.00
7168;BME280;3625;51.762;14.320;2023-12-14T07:30:09;100154.56;;;5.22;100.00
7168;BME280;3625;51.762;14.320;2023-12-14T07:32:38;100159.00;;;5.16;100.00
7168;BME280;3625;51.762;14.320;2023-12-14T07:35:08;100169.44;;;5.22;100.00
7168;BME280;3625;51.762;14.320;2023-12-14T07:37:37;100173.91;;;5.06;100.00
7168;BME280;3625;51.762;14.320;2023-12-14T07:40:09;100091.09;;;4.61;100.00
7168;BME280;3625;51.762;14.320;2023-12-14T07:42:38;100183.47;;;5.13;100.00
7168;BME280;3625;51.762;14.320;2023-12-14T07:45:08;100183.47;;;5.10;100.00
7168;BME280;3625;51.762;14.320;2023-12-14T07:47:38;100186.09;;;5.10;100.00
7168;BME280;3625;51.762;14.320;2023-12-14T07:50:07;100133.84;;;4.74;100.00
7168;BME280;3625;51.762;14.320;2023-12-14T07:52:36;100193.09;;;5.11;100.00
7168;BME280;3625;51.762;14.320;2023-12-14T07:55:08;100181.78;;;4.94;100.00
7168;BME280;3625;51.762;14.320;2023-12-14T07:57:37;100193.94;;;5.13;100.00
7168;BME280;3625;51.762;14.320;2023-12-14T08:00:08;100190.47;;;5.11;100.00
7168;BME280;3625;51.762;14.320;2023-12-14T08:02:37;100209.59;;;5.28;100.00
7168;BME280;3625;51.762;14.320;2023-12-14T08:05:06;100207.84;;;5.35;100.00
7168;BME280;3625;51.762;14.320;2023-12-14T08:07:36;100206.94;;;5.44;100.00
7168;BME280;3625;51.762;14.320;2023-12-14T08:10:07;100222.63;;;5.48;100.00
7168;BME280;3625;51.762;14.320;2023-12-14T08:12:36;100236.63;;;5.49;100.00
7168;BME280;3625;51.762;14.320;2023-12-14T08:15:06;100241.81;;;5.61;100.00
7168;BME280;3625;51.762;14.320;2023-12-14T08:17:36;100237.41;;;5.69;100.00
7168;BME280;3625;51.762;14.320;2023-12-14T08:20:06;100243.41;;;5.86;100.00
7168;BME280;3625;51.762;14.320;2023-12-14T08:22:36;100247.78;;;5.89;100.00
7168;BME280;3625;51.762;14.320;2023-12-14T08:25:14;100244.28;;;5.90;100.00
7168;BME280;3625;51.762;14.320;2023-12-14T08:27:43;100229.53;;;5.64;100.00
7168;BME280;3625;51.762;14.320;2023-12-14T08:30:13;100274.00;;;5.95;100.00
7168;BME280;3625;51.762;14.320;2023-12-14T08:32:42;100276.59;;;6.02;100.00
7168;BME280;3625;51.762;14.320;2023-12-14T08:35:11;100250.41;;;5.89;100.00
7168;BME280;3625;51.762;14.320;2023-12-14T08:37:40;100198.91;;;5.65;100.00
7168;BME280;3625;51.762;14.320;2023-12-14T08:40:10;100283.47;;;6.14;100.00
7168;BME280;3625;51.762;14.320;2023-12-14T08:42:40;100259.09;;;5.97;100.00
7168;BME280;3625;51.762;14.320;2023-12-14T08:45:10;100198.19;;;5.39;100.00
7168;BME280;3625;51.762;14.320;2023-12-14T08:47:39;100298.47;;;5.98;100.00
7168;BME280;3625;51.762;14.320;2023-12-14T08:50:08;100304.72;;;5.78;100.00
7168;BME280;3625;51.762;14.320;2023-12-14T08:52:37;100309.09;;;5.79;100.00
7168;BME280;3625;51.762;14.320;2023-12-14T08:55:08;100316.91;;;5.80;100.00
7168;BME280;3625;51.762;14.320;2023-12-14T08:57:37;100321.28;;;5.81;100.00
7168;BME280;3625;51.762;14.320;2023-12-14T09:00:08;100325.66;;;5.85;100.00
7168;BME280;3625;51.762;14.320;2023-12-14T09:02:39;100338.75;;;5.97;100.00
7168;BME280;3625;51.762;14.320;2023-12-14T09:05:08;100304.66;;;5.81;100.00
7168;BME280;3625;51.762;14.320;2023-12-14T09:07:42;100333.53;;;5.85;100.00
7168;BME280;3625;51.762;14.320;2023-12-14T09:10:11;100303.00;;;5.63;100.00
7168;BME280;3625;51.762;14.320;2023-12-14T09:12:40;100357.16;;;5.87;100.00
7168;BME280;3625;51.762;14.320;2023-12-14T09:15:11;100350.28;;;5.60;100.00
7168;BME280;3625;51.762;14.320;2023-12-14T09:17:39;100364.28;;;5.62;100.00
7168;BME280;3625;51.762;14.320;2023-12-14T09:20:11;100365.97;;;5.74;100.00
7168;BME280;3625;51.762;14.320;2023-12-14T09:22:39;100372.06;;;5.77;100.00
7168;BME280;3625;51.762;14.320;2023-12-14T09:25:08;100364.16;;;5.83;100.00
7168;BME280;3625;51.762;14.320;2023-12-14T09:27:38;100370.28;;;5.87;100.00
7168;BME280;3625;51.762;14.320;2023-12-14T09:30:10;100379.09;;;5.67;100.00
7168;BME280;3625;51.762;14.320;2023-12-14T09:32:39;100366.03;;;5.58;100.00
7168;BME280;3625;51.762;14.320;2023-12-14T09:35:09;100371.28;;;5.46;100.00
7168;BME280;3625;51.762;14.320;2023-12-14T09:37:37;100375.69;;;5.53;100.00
7168;BME280;3625;51.762;14.320;2023-12-14T09:40:08;100362.56;;;5.49;100.00
7168;BME280;3625;51.762;14.320;2023-12-14T09:42:39;100394.88;;;5.55;100.00
7168;BME280;3625;51.762;14.320;2023-12-14T09:45:10;100383.47;;;5.67;100.00
7168;BME280;3625;51.762;14.320;2023-12-14T09:47:40;100363.47;;;5.32;100.00
7168;BME280;3625;51.762;14.320;2023-12-14T09:50:10;100400.13;;;5.54;100.00
7168;BME280;3625;51.762;14.320;2023-12-14T09:52:39;100398.41;;;5.51;100.00
7168;BME280;3625;51.762;14.320;2023-12-14T09:55:12;100393.16;;;5.47;100.00
7168;BME280;3625;51.762;14.320;2023-12-14T09:57:41;100400.16;;;5.51;100.00
7168;BME280;3625;51.762;14.320;2023-12-14T10:00:32;100396.66;;;5.47;100.00
7168;BME280;3625;51.762;14.320;2023-12-14T10:03:21;100403.63;;;5.56;100.00
7168;BME280;3625;51.762;14.320;2023-12-14T10:05:50;100412.38;;;5.59;100.00
7168;BME280;3625;51.762;14.320;2023-12-14T10:08:19;100394.94;;;5.34;100.00
7168;BME280;3625;51.762;14.320;2023-12-14T10:10:50;100420.25;;;5.58;100.00
7168;BME280;3625;51.762;14.320;2023-12-14T10:13:22;100416.72;;;5.63;100.00
7168;BME280;3625;51.762;14.320;2023-12-14T10:15:52;100434.22;;;5.67;100.00
7168;BME280;3625;51.762;14.320;2023-12-14T10:18:24;100428.16;;;5.53;100.00
7168;BME280;3625;51.762;14.320;2023-12-14T10:20:54;100434.25;;;5.48;100.00
7168;BME280;3625;51.762;14.320;2023-12-14T10:23:24;100439.50;;;5.55;100.00
7168;BME280;3625;51.762;14.320;2023-12-14T10:25:53;100440.38;;;5.54;100.00
7168;BME280;3625;51.762;14.320;2023-12-14T10:28:23;100449.16;;;5.32;100.00
7168;BME280;3625;51.762;14.320;2023-12-14T10:30:55;100443.91;;;5.38;100.00
7168;BME280;3625;51.762;14.320;2023-12-14T10:33:24;100450.03;;;5.45;100.00
7168;BME280;3625;51.762;14.320;2023-12-14T10:35:53;100450.88;;;5.53;100.00
7168;BME280;3625;51.762;14.320;2023-12-14T10:38:25;100411.56;;;5.31;100.00
7168;BME280;3625;51.762;14.320;2023-12-14T10:40:58;100448.19;;;5.71;100.00
7168;BME280;3625;51.762;14.320;2023-12-14T10:43:27;100446.44;;;5.78;100.00
7168;BME280;3625;51.762;14.320;2023-12-14T10:46:20;100449.91;;;5.84;100.00
7168;BME280;3625;51.762;14.320;2023-12-14T10:48:54;100459.53;;;5.99;100.00
7168;BME280;3625;51.762;14.320;2023-12-14T10:51:26;100462.16;;;6.00;100.00
7168;BME280;3625;51.762;14.320;2023-12-14T10:54:01;100466.50;;;6.07;100.00
7168;BME280;3625;51.762;14.320;2023-12-14T10:56:30;100480.56;;;5.96;100.00
7168;BME280;3625;51.762;14.320;2023-12-14T10:58:59;100453.50;;;5.59;100.00
7168;BME280;3625;51.762;14.320;2023-12-14T11:01:33;100477.94;;;5.87;100.00
7168;BME280;3625;51.762;14.320;2023-12-14T11:04:06;100477.94;;;5.75;100.00
7168;BME280;3625;51.762;14.320;2023-12-14T11:06:40;100476.16;;;5.98;100.00
7168;BME280;3625;51.762;14.320;2023-12-14T11:09:18;100435.03;;;5.85;100.00
7168;BME280;3625;51.762;14.320;2023-12-14T11:11:56;100492.75;;;6.11;100.00
7168;BME280;3625;51.762;14.320;2023-12-14T11:14:27;100494.56;;;5.87;100.00
7168;BME280;3625;51.762;14.320;2023-12-14T11:17:06;100460.44;;;5.77;100.00
7168;BME280;3625;51.762;14.320;2023-12-14T11:19:36;100478.81;;;5.96;100.00
7168;BME280;3625;51.762;14.320;2023-12-14T11:22:12;100463.06;;;5.86;100.00
7168;BME280;3625;51.762;14.320;2023-12-14T11:24:42;100518.09;;;6.19;100.00
7168;BME280;3625;51.762;14.320;2023-12-14T11:27:25;100486.69;;;5.96;100.00
7168;BME280;3625;51.762;14.320;2023-12-14T11:29:54;100523.41;;;6.13;100.00
7168;BME280;3625;51.762;14.320;2023-12-14T11:32:27;100524.28;;;6.01;100.00
7168;BME280;3625;51.762;14.320;2023-12-14T11:35:18;100407.25;;;4.82;100.00
7168;BME280;3625;51.762;14.320;2023-12-14T11:39:11;100424.72;;;4.66;100.00
7168;BME280;3625;51.762;14.320;2023-12-14T11:41:40;100532.22;;;5.22;100.00
7168;BME280;3625;51.762;14.320;2023-12-14T11:44:09;100527.84;;;5.20;100.00
7168;BME280;3625;51.762;14.320;2023-12-14T12:38:50;100580.25;;;4.92;100.00
7168;BME280;3625;51.762;14.320;2023-12-14T12:41:18;100540.00;;;4.66;100.00
7168;BME280;3625;51.762;14.320;2023-12-14T12:43:47;100578.50;;;4.90;100.00
7168;BME280;3625;51.762;14.320;2023-12-14T12:46:16;100580.25;;;4.92;100.00
7168;BME280;3625;51.762;14.320;2023-12-14T13:11:04;100625.75;;;5.14;100.00
7168;BME280;3625;51.762;14.320;2023-12-14T13:13:32;100618.75;;;5.09;100.00
7168;BME280;3625;51.762;14.320;2023-12-14T13:16:01;100611.72;;;4.97;100.00
7168;BME280;3625;51.762;14.320;2023-12-14T13:18:30;100631.84;;;5.09;100.00
7168;BME280;3625;51.762;14.320;2023-12-14T13:20:59;100643.16;;;4.91;100.00
7168;BME280;3625;51.762;14.320;2023-12-14T13:23:28;100643.06;;;4.76;100.00
7168;BME280;3625;51.762;14.320;2023-12-14T13:25:57;100651.75;;;4.67;100.00
7168;BME280;3625;51.762;14.320;2023-12-14T13:28:27;100650.06;;;4.72;100.00
7168;BME280;3625;51.762;14.320;2023-12-14T13:30:56;100670.13;;;4.64;100.00
7168;BME280;3625;51.762;14.320;2023-12-14T13:33:25;100670.09;;;4.58;100.00
7168;BME280;3625;51.762;14.320;2023-12-14T13:35:55;100677.06;;;4.56;100.00
7168;BME280;3625;51.762;14.320;2023-12-14T13:38:24;100677.03;;;4.48;100.00
7168;BME280;3625;51.762;14.320;2023-12-14T13:40:54;100684.84;;;4.45;100.00
7168;BME280;3625;51.762;14.320;2023-12-14T13:43:23;100687.44;;;4.42;100.00
7168;BME280;3625;51.762;14.320;2023-12-14T13:45:53;100663.78;;;4.29;100.00
7168;BME280;3625;51.762;14.320;2023-12-14T13:48:43;100688.31;;;4.38;100.00
7168;BME280;3625;51.762;14.320;2023-12-14T13:51:12;100701.28;;;4.26;100.00
7168;BME280;3625;51.762;14.320;2023-12-14T13:53:42;100704.88;;;4.37;100.00
7168;BME280;3625;51.762;14.320;2023-12-14T13:56:11;100704.94;;;4.46;100.00
7168;BME280;3625;51.762;14.320;2023-12-14T13:58:40;100706.78;;;4.61;100.00
7168;BME280;3625;51.762;14.320;2023-12-14T14:01:11;100732.19;;;4.76;100.00
7168;BME280;3625;51.762;14.320;2023-12-14T14:03:42;100727.75;;;4.67;100.00
7168;BME280;3625;51.762;14.320;2023-12-14T14:06:17;100733.00;;;4.64;100.00
7168;BME280;3625;51.762;14.320;2023-12-14T14:08:47;100736.50;;;4.68;100.00
7168;BME280;3625;51.762;14.320;2023-12-14T14:11:17;100719.81;;;4.53;100.00
7168;BME280;3625;51.762;14.320;2023-12-14T14:13:45;100746.16;;;4.73;100.00
7168;BME280;3625;51.762;14.320;2023-12-14T14:16:16;100754.84;;;4.68;100.00
7168;BME280;3625;51.762;14.320;2023-12-14T14:18:47;100767.00;;;4.57;100.00
7168;BME280;3625;51.762;14.320;2023-12-14T14:21:16;100759.06;;;4.46;100.00
7168;BME280;3625;51.762;14.320;2023-12-14T14:23:45;100778.34;;;4.54;100.00
7168;BME280;3625;51.762;14.320;2023-12-14T14:26:14;100768.63;;;4.42;100.00
7168;BME280;3625;51.762;14.320;2023-12-14T14:28:43;100680.13;;;3.96;100.00
7168;BME280;3625;51.762;14.320;2023-12-14T14:31:12;100792.41;;;4.65;100.00
7168;BME280;3625;51.762;14.320;2023-12-14T14:33:42;100773.97;;;4.54;100.00
7168;BME280;3625;51.762;14.320;2023-12-14T14:36:11;100777.44;;;4.50;100.00